Airfield :
LOGIN :

Register | Disclaimer

   EN    FR    IT 

 










Legend :    VFR   Marginal VFR   IFR   Intensive IFR   Very Intensive IFR
Visi :
Ceiling :
>= 8 km
>= 3000ft
5 to 8 km
1000 to 3000 ft
1500m to 5 km
500 to 1000 ft
800 to 1500m
200 to 500 ft
< 800m
< 200 ft
Symbols :   Thunderstorms  Fog  Heavy snow  Heavy precipitations  Wind > 20 kt
SIGMETs :     Misc.  Thunderstorms  Icing  Turbulence  Mountain Waves  Volcanic Ashes






- Airport Elevation : 885 ft
- IATA code : BAS


LFSB - Bale-Mulhouse

CURRENT METAR :
  • 200600Z 34005KT 0500 R15/0800N R33/1000U FG VV/// 02/02 Q1016 NOSIG

EXPIRED METARs :
  • 200530Z 33005KT 0400 R15/0900U R33/0750N FG VV/// 02/02 Q1016 NOSIG
  • 200500Z 32005KT 0400 R15/0750N R33/0750N FG VV/// 02/02 Q1016 NOSIG
  • 200430Z 32005KT 0900 0700N R15/1100D R33/1200N FG VV/// 02/02 Q1016 TEMPO 0300 FG
  • 200400Z 34005KT 1700 0900N R15/1700N R33/1900D BCFG BR BKN001 OVC002 02/02 Q1016 BECMG 0400 FG VV///

TAF TAF LFSB
Valid from the 20 at 06:00 until the 21 at 06:00 UTC


200500Z 2006/2106 33005KT 0400 FG VV///
BECMG 2007/2010 3000 BR OVC003
BECMG 2010/2012 6000 NSW BKN008
BECMG 2015/2018 3000 BR OVC003
PROB40
TEMPO 2021/2106 0400 FG VV///
Met : +33 3 89 90 31 11



MET'MAP, your aeronautical weather chart ! - Copyright ORBIFLY December 2007 - Disclaimer

ORBIFLY MET'MAP TEAM :

Programming & Development : Alexandra Zaïnal
Concept & Development : Baudouin d'Aumeries
Co-Development & Prog : Marc-Olivier Méhu
Technical & hardware support : Manuel Goepfert

Contact : metmap@orbifly.com




SOURCES & CREDITS :

   NOAA